createdAt,value
2018-08-04T00:00:49.316Z,13.50
2018-08-04T00:03:17.197Z,24.37
2018-08-04T00:05:45.107Z,14.80
2018-08-04T00:08:13.718Z,17.27
2018-08-04T00:10:45.313Z,18.00
2018-08-04T00:13:13.149Z,16.20
2018-08-04T00:15:41.021Z,17.97
2018-08-04T00:18:09.674Z,14.50
2018-08-04T00:20:37.395Z,16.10
2018-08-04T00:23:05.348Z,12.37
2018-08-04T00:25:33.206Z,14.97
2018-08-04T00:28:01.126Z,13.80
2018-08-04T00:30:29.043Z,22.10
2018-08-04T00:32:56.914Z,14.40
2018-08-04T00:35:24.833Z,15.47
2018-08-04T00:37:52.601Z,25.70
2018-08-04T00:40:20.562Z,16.07
2018-08-04T00:42:49.411Z,13.63
2018-08-04T00:45:17.297Z,15.87
2018-08-04T00:47:45.865Z,15.10
2018-08-04T00:50:13.779Z,17.63
2018-08-04T00:52:41.711Z,15.43
2018-08-04T00:55:10.193Z,20.33
2018-08-04T00:57:38.151Z,14.87
2018-08-04T01:00:06.122Z,17.97
2018-08-04T01:02:33.975Z,18.33
2018-08-04T01:05:02.614Z,14.70
2018-08-04T01:07:30.518Z,16.10
2018-08-04T01:10:03.524Z,13.90
2018-08-04T01:12:31.834Z,17.63
2018-08-04T01:15:00.211Z,16.20
2018-08-04T01:17:28.457Z,21.17
2018-08-04T01:20:00.958Z,24.27
2018-08-04T01:22:29.915Z,22.03
2018-08-04T01:24:58.008Z,20.97
2018-08-04T01:27:26.671Z,17.23
2018-08-04T01:29:54.593Z,16.97
2018-08-04T01:32:22.557Z,17.90
2018-08-04T01:34:50.628Z,18.90
2018-08-04T01:37:18.542Z,17.53
2018-08-04T01:39:46.415Z,20.13
2018-08-04T01:42:14.304Z,23.03
2018-08-04T01:44:42.160Z,19.63
2018-08-04T01:47:10.038Z,18.00
2018-08-04T01:49:37.898Z,23.77
2018-08-04T01:52:06.584Z,19.00
2018-08-04T01:54:34.476Z,20.47
2018-08-04T01:57:02.371Z,17.40
2018-08-04T01:59:30.117Z,16.30
2018-08-04T02:01:58.049Z,15.47
2018-08-04T02:04:26.371Z,18.20
2018-08-04T02:06:55.937Z,20.53
2018-08-04T02:09:23.817Z,17.30
2018-08-04T02:11:52.311Z,18.07
2018-08-04T02:14:20.168Z,16.73
2018-08-04T02:16:48.037Z,20.20
2018-08-04T02:19:15.957Z,17.40
2018-08-04T02:21:43.867Z,16.43
2018-08-04T02:24:11.720Z,17.20
2018-08-04T02:26:39.622Z,18.57
2018-08-04T02:29:07.551Z,18.90
2018-08-04T02:31:35.553Z,15.77
2018-08-04T02:34:03.494Z,16.40
2018-08-04T02:36:32.000Z,18.83
2018-08-04T02:39:00.853Z,18.83
2018-08-04T02:41:28.738Z,16.53
2018-08-04T02:43:56.646Z,20.13
2018-08-04T02:46:25.204Z,29.33
2018-08-04T02:48:53.515Z,20.93
2018-08-04T02:51:21.391Z,21.77
2018-08-04T02:53:49.285Z,17.47
2018-08-04T02:56:17.205Z,17.60
2018-08-04T02:58:44.984Z,17.40
2018-08-04T03:01:12.778Z,15.63
2018-08-04T03:03:40.702Z,14.67
2018-08-04T03:06:08.598Z,18.40
2018-08-04T03:08:36.523Z,16.37
2018-08-04T03:11:04.403Z,17.00
2018-08-04T03:13:32.369Z,18.43
2018-08-04T03:16:00.874Z,21.80
2018-08-04T03:18:28.796Z,23.03
2018-08-04T03:20:56.691Z,16.90
2018-08-04T03:23:25.375Z,20.10
2018-08-04T03:25:53.328Z,24.97
2018-08-04T03:28:21.179Z,18.20
2018-08-04T03:30:49.079Z,22.10
2018-08-04T03:33:16.994Z,19.17
2018-08-04T03:35:45.113Z,18.00
2018-08-04T03:38:13.038Z,17.00
2018-08-04T03:49:42.049Z,20.53
2018-08-04T03:52:10.216Z,31.83
2018-08-04T03:54:38.494Z,21.37
2018-08-04T03:57:07.034Z,21.63
2018-08-04T03:59:36.120Z,30.47
2018-08-04T04:02:04.055Z,24.43
2018-08-04T04:04:32.857Z,23.80
2018-08-04T04:07:01.321Z,18.00
2018-08-04T04:09:29.285Z,15.83
2018-08-04T04:11:57.239Z,24.40
2018-08-04T04:14:25.169Z,20.57
2018-08-04T04:16:53.161Z,19.80
2018-08-04T04:19:21.046Z,18.17
2018-08-04T04:21:48.813Z,17.67
2018-08-04T04:24:16.563Z,16.50
2018-08-04T04:26:45.163Z,18.67
2018-08-04T04:29:13.116Z,17.30
2018-08-04T04:31:41.021Z,14.60
2018-08-04T04:34:08.919Z,19.23
2018-08-04T04:36:36.816Z,20.30
2018-08-04T04:39:08.323Z,24.80
2018-08-04T04:41:36.295Z,17.90
2018-08-04T04:44:04.209Z,19.47
2018-08-04T04:46:36.611Z,19.30
2018-08-04T04:49:04.902Z,26.50
2018-08-04T04:51:32.812Z,23.53
2018-08-04T04:54:00.710Z,27.37
2018-08-04T04:56:29.405Z,24.73
2018-08-04T04:58:57.315Z,24.10
2018-08-04T05:01:25.236Z,23.33
2018-08-04T05:03:53.402Z,26.90
2018-08-04T05:06:21.320Z,23.53
2018-08-04T05:08:49.861Z,25.67
2018-08-04T05:11:17.750Z,21.53
2018-08-04T05:13:45.515Z,24.93
2018-08-04T05:16:13.402Z,24.57
2018-08-04T05:18:41.550Z,22.60
2018-08-04T05:21:09.601Z,22.70
2018-08-04T05:23:37.792Z,23.50
2018-08-04T05:26:05.801Z,28.93
2018-08-04T05:28:33.702Z,25.57
2018-08-04T05:31:02.382Z,25.70
2018-08-04T05:33:31.078Z,26.30
2018-08-04T05:35:59.375Z,27.03
2018-08-04T05:38:27.159Z,22.60
2018-08-04T05:40:55.067Z,24.20
2018-08-04T05:43:23.091Z,22.60
2018-08-04T05:45:50.957Z,27.43
2018-08-04T05:48:18.906Z,28.53
2018-08-04T05:50:46.832Z,22.83
2018-08-04T05:53:15.410Z,24.43
2018-08-04T05:55:43.355Z,26.60
2018-08-04T05:58:11.973Z,20.50
2018-08-04T06:00:41.049Z,21.97
2018-08-04T06:03:08.780Z,26.47
2018-08-04T06:05:36.751Z,21.20
2018-08-04T06:08:04.750Z,21.37
2018-08-04T06:10:32.664Z,18.73
2018-08-04T06:13:01.154Z,16.10
2018-08-04T06:15:29.723Z,23.20
2018-08-04T06:17:57.644Z,17.60
2018-08-04T06:20:25.442Z,18.80
2018-08-04T06:22:53.394Z,21.10
2018-08-04T06:25:21.950Z,17.00
2018-08-04T06:27:51.547Z,22.90
2018-08-04T06:30:19.579Z,23.27
2018-08-04T06:32:47.491Z,20.37
2018-08-04T06:35:15.239Z,18.60
2018-08-04T06:37:43.037Z,17.47
2018-08-04T06:40:11.128Z,23.97
2018-08-04T06:42:39.037Z,20.03
2018-08-04T06:45:07.972Z,20.20
2018-08-04T06:47:35.831Z,25.23
2018-08-04T06:50:04.154Z,18.23
2018-08-04T06:52:32.154Z,20.23
2018-08-04T06:54:59.938Z,18.37
2018-08-04T06:57:27.817Z,18.53
2018-08-04T07:00:02.921Z,18.50
2018-08-04T07:02:30.663Z,16.50
2018-08-04T07:04:58.575Z,22.57
2018-08-04T07:07:26.484Z,22.73
2018-08-04T07:09:54.646Z,22.20
2018-08-04T07:12:22.602Z,19.03
2018-08-04T07:14:50.423Z,18.70
2018-08-04T07:17:18.353Z,24.53
2018-08-04T07:19:47.498Z,16.10
2018-08-04T07:22:15.416Z,17.60
2018-08-04T07:24:44.656Z,16.73
2018-08-04T07:27:12.465Z,16.90
2018-08-04T07:29:40.620Z,21.90
2018-08-04T07:32:09.895Z,22.27
2018-08-04T07:34:37.747Z,16.20
2018-08-04T07:37:06.047Z,16.63
2018-08-04T07:39:33.832Z,19.47
2018-08-04T07:42:02.394Z,15.77
2018-08-04T07:44:30.464Z,15.47
2018-08-04T07:46:58.451Z,13.27
2018-08-04T07:49:27.079Z,14.33
2018-08-04T07:51:54.995Z,20.20
2018-08-04T07:54:22.942Z,12.97
2018-08-04T07:56:50.860Z,14.70
2018-08-04T07:59:19.483Z,14.23
2018-08-04T08:01:47.444Z,12.73
2018-08-04T08:04:15.976Z,15.70
2018-08-04T08:06:44.668Z,14.13
2018-08-04T08:09:13.899Z,11.60
2018-08-04T08:11:41.834Z,9.57
2018-08-04T08:14:09.802Z,12.43
2018-08-04T08:16:39.139Z,16.07
2018-08-04T08:19:07.267Z,9.97
2018-08-04T08:21:35.054Z,12.03
2018-08-04T08:24:03.074Z,10.40
2018-08-04T08:26:31.020Z,15.63
2018-08-04T08:28:58.917Z,11.27
2018-08-04T08:31:26.910Z,13.50
2018-08-04T08:33:54.742Z,9.60
2018-08-04T08:36:22.669Z,10.50
2018-08-04T08:38:51.384Z,10.70
2018-08-04T08:41:19.296Z,12.50
2018-08-04T08:43:47.251Z,10.10
2018-08-04T08:46:15.191Z,10.87
2018-08-04T08:48:43.081Z,11.07
2018-08-04T08:51:11.136Z,12.47
2018-08-04T08:53:40.522Z,9.03
2018-08-04T08:56:08.760Z,8.67
2018-08-04T08:58:36.526Z,14.17
2018-08-04T09:01:05.455Z,12.13
2018-08-04T09:03:35.410Z,10.00
2018-08-04T09:06:03.426Z,11.80
2018-08-04T09:08:31.388Z,8.13
2018-08-04T09:10:59.242Z,9.93
2018-08-04T09:13:27.022Z,9.07
2018-08-04T09:15:54.928Z,14.07
2018-08-04T09:18:24.133Z,13.23
2018-08-04T09:20:52.059Z,10.50
2018-08-04T09:23:20.007Z,12.37
2018-08-04T09:25:48.320Z,9.87
2018-08-04T09:28:16.287Z,10.23
2018-08-04T09:30:44.276Z,9.10
2018-08-04T09:33:12.224Z,9.10
2018-08-04T09:35:40.302Z,8.30
2018-08-04T09:38:09.230Z,7.87
2018-08-04T09:40:37.091Z,11.10
2018-08-04T09:43:05.860Z,9.77
2018-08-04T09:45:33.870Z,14.13
2018-08-04T09:48:02.711Z,7.57
2018-08-04T09:50:30.634Z,11.43
2018-08-04T09:52:58.388Z,9.97
2018-08-04T09:55:26.234Z,10.70
2018-08-04T09:57:54.101Z,7.17
2018-08-04T10:00:31.886Z,9.67
2018-08-04T10:03:00.304Z,6.93
2018-08-04T10:05:28.244Z,11.47
2018-08-04T10:07:56.936Z,9.97
2018-08-04T10:10:24.887Z,9.50
2018-08-04T10:12:52.957Z,7.30
2018-08-04T10:15:20.895Z,6.53
2018-08-04T10:17:48.748Z,6.70
2018-08-04T10:20:17.574Z,8.67
2018-08-04T10:22:45.646Z,7.63
2018-08-04T10:25:13.994Z,11.70
2018-08-04T10:27:42.620Z,8.70
2018-08-04T10:30:11.928Z,8.23
2018-08-04T10:32:39.934Z,6.80
2018-08-04T10:35:08.722Z,14.03
2018-08-04T10:37:37.410Z,11.07
2018-08-04T10:40:05.608Z,6.60
2018-08-04T10:42:33.494Z,7.20
2018-08-04T10:45:01.425Z,10.63
2018-08-04T10:47:29.347Z,9.13
2018-08-04T10:49:57.252Z,7.00
2018-08-04T10:52:25.431Z,6.83
2018-08-04T10:54:53.198Z,8.60
2018-08-04T10:57:21.166Z,12.57
2018-08-04T10:59:49.455Z,6.83
2018-08-04T11:02:17.457Z,10.37
2018-08-04T11:04:45.382Z,9.80
2018-08-04T11:07:13.274Z,8.20
2018-08-04T11:09:41.201Z,8.37
2018-08-04T11:12:09.189Z,8.10
2018-08-04T11:14:37.166Z,9.20
2018-08-04T11:17:04.951Z,10.00
2018-08-04T11:19:33.456Z,10.33
2018-08-04T11:22:02.208Z,8.97
2018-08-04T11:24:30.121Z,8.87
2018-08-04T11:26:58.535Z,9.60
2018-08-04T11:29:27.103Z,8.87
2018-08-04T11:31:55.009Z,9.47
2018-08-04T11:34:22.738Z,8.23
2018-08-04T11:36:50.754Z,10.00
2018-08-04T11:39:18.699Z,9.57
2018-08-04T11:41:46.632Z,8.30
2018-08-04T11:44:14.472Z,7.83
2018-08-04T11:46:42.345Z,9.17
2018-08-04T11:49:10.599Z,8.30
2018-08-04T11:51:38.631Z,11.27
2018-08-04T11:54:06.576Z,7.87
2018-08-04T11:56:34.825Z,11.63
2018-08-04T11:59:03.531Z,7.70
2018-08-04T12:01:31.979Z,11.10
2018-08-04T12:03:59.987Z,12.43
2018-08-04T12:06:28.035Z,9.87
2018-08-04T12:08:56.080Z,12.90
2018-08-04T12:11:23.834Z,10.20
2018-08-04T12:13:51.748Z,10.73
2018-08-04T12:16:20.303Z,9.57
2018-08-04T12:18:48.201Z,9.33
2018-08-04T12:21:16.133Z,8.63
2018-08-04T12:23:44.032Z,11.40
2018-08-04T12:26:11.974Z,12.17
2018-08-04T12:28:39.875Z,9.97
2018-08-04T12:31:07.796Z,9.23
2018-08-04T12:33:35.619Z,9.70
2018-08-04T12:36:04.512Z,22.47
2018-08-04T12:38:32.373Z,9.67
2018-08-04T12:41:00.292Z,11.00
2018-08-04T12:43:28.212Z,11.73
2018-08-04T12:45:56.192Z,13.10
2018-08-04T12:48:28.185Z,10.07
2018-08-04T12:50:56.898Z,9.07
2018-08-04T12:53:25.066Z,11.80
2018-08-04T12:55:52.838Z,10.73
2018-08-04T12:58:20.850Z,14.20
2018-08-04T13:00:48.793Z,14.27
2018-08-04T13:03:16.693Z,8.80
2018-08-04T13:05:44.927Z,10.57
2018-08-04T13:08:12.915Z,8.60
2018-08-04T13:10:40.840Z,14.13
2018-08-04T13:13:08.668Z,10.20
2018-08-04T13:15:37.186Z,12.10
2018-08-04T13:18:05.018Z,9.27
2018-08-04T13:20:32.954Z,10.30
2018-08-04T13:23:02.256Z,13.20
2018-08-04T13:25:30.375Z,10.57
2018-08-04T13:27:58.297Z,11.30
2018-08-04T13:30:26.238Z,8.13
2018-08-04T13:32:54.810Z,7.97
2018-08-04T13:35:23.217Z,9.90
2018-08-04T13:37:51.143Z,16.23
2018-08-04T13:40:18.995Z,8.50
2018-08-04T13:42:46.955Z,10.73
2018-08-04T13:45:15.000Z,12.30
2018-08-04T13:47:43.258Z,9.40
2018-08-04T13:50:11.053Z,9.90
2018-08-04T13:52:39.039Z,11.63
2018-08-04T13:55:07.164Z,8.30
2018-08-04T13:57:35.888Z,11.20
2018-08-04T14:00:04.363Z,7.63
2018-08-04T14:02:32.266Z,10.37
2018-08-04T14:05:00.860Z,8.67
2018-08-04T14:07:28.807Z,8.00
2018-08-04T14:09:56.741Z,8.13
2018-08-04T14:12:24.999Z,9.50
2018-08-04T14:14:52.948Z,9.87
2018-08-04T14:17:20.987Z,13.07
2018-08-04T14:19:48.960Z,7.87
2018-08-04T14:22:17.197Z,11.73
2018-08-04T14:24:45.767Z,8.60
2018-08-04T14:27:13.692Z,9.70
2018-08-04T14:29:41.598Z,8.37
2018-08-04T14:32:09.789Z,8.70
2018-08-04T14:34:37.543Z,12.23
2018-08-04T14:37:05.438Z,7.83
2018-08-04T14:39:33.652Z,10.60
2018-08-04T14:42:01.562Z,10.30
2018-08-04T14:44:29.527Z,9.53
2018-08-04T14:46:57.260Z,13.90
2018-08-04T14:49:25.233Z,13.33
2018-08-04T14:51:53.191Z,10.10
2018-08-04T14:54:21.091Z,7.90
2018-08-04T14:56:48.998Z,9.87
2018-08-04T14:59:16.989Z,7.70
2018-08-04T15:01:44.897Z,10.50
2018-08-04T15:04:13.214Z,8.90
2018-08-04T15:06:40.966Z,10.50
2018-08-04T15:09:10.674Z,8.50
2018-08-04T15:11:39.236Z,12.17
2018-08-04T15:14:07.831Z,11.13
2018-08-04T15:16:36.400Z,8.00
2018-08-04T15:19:04.561Z,8.27
2018-08-04T15:21:32.492Z,8.90
2018-08-04T15:24:01.345Z,8.53
2018-08-04T15:26:29.296Z,11.03
2018-08-04T15:28:57.179Z,8.10
2018-08-04T15:31:25.001Z,9.23
2018-08-04T15:33:53.125Z,8.60
2018-08-04T15:36:21.089Z,10.30
2018-08-04T15:38:48.808Z,14.60
2018-08-04T15:41:16.933Z,14.07
2018-08-04T15:43:44.917Z,12.43
2018-08-04T15:46:13.137Z,7.67
2018-08-04T15:48:40.990Z,8.53
2018-08-04T15:51:08.853Z,16.50
2018-08-04T15:53:36.777Z,14.27
2018-08-04T15:56:04.537Z,10.40
2018-08-04T15:58:32.608Z,10.37
2018-08-04T16:01:00.533Z,8.93
2018-08-04T16:03:28.799Z,12.17
2018-08-04T16:05:56.704Z,8.93
2018-08-04T16:08:24.706Z,8.23
2018-08-04T16:10:52.649Z,13.83
2018-08-04T16:13:20.885Z,11.80
2018-08-04T16:15:48.806Z,8.57
2018-08-04T16:18:16.723Z,8.83
2018-08-04T16:20:44.619Z,10.07
2018-08-04T16:23:12.515Z,14.83
2018-08-04T16:25:40.677Z,7.80
2018-08-04T16:28:08.626Z,12.10
2018-08-04T16:30:36.627Z,13.03
2018-08-04T16:33:04.535Z,8.73
2018-08-04T16:35:32.504Z,10.80
2018-08-04T16:38:00.427Z,9.57
2018-08-04T16:40:28.183Z,7.70
2018-08-04T16:42:56.088Z,18.03
2018-08-04T16:45:24.015Z,10.23
2018-08-04T16:47:51.772Z,8.37
2018-08-04T16:50:19.679Z,12.50
2018-08-04T16:52:47.595Z,9.07
2018-08-04T16:55:15.543Z,9.50
2018-08-04T16:57:43.772Z,11.07
2018-08-04T17:00:11.543Z,11.50
2018-08-04T17:02:39.464Z,12.27
2018-08-04T17:05:07.515Z,12.67
2018-08-04T17:07:35.506Z,14.13
2018-08-04T17:10:03.780Z,13.27
2018-08-04T17:12:31.710Z,14.30
2018-08-04T17:14:59.982Z,13.50
2018-08-04T17:17:27.892Z,12.60
2018-08-04T17:19:55.767Z,19.77
2018-08-04T17:22:23.979Z,17.13
2018-08-04T17:24:52.041Z,11.53
2018-08-04T17:27:26.144Z,14.40
2018-08-04T17:29:54.041Z,15.90
2018-08-04T17:32:22.426Z,22.60
2018-08-04T17:34:50.875Z,16.70
2018-08-04T17:37:19.493Z,15.23
2018-08-04T17:39:47.427Z,20.83
2018-08-04T17:42:15.819Z,14.97
2018-08-04T17:44:43.602Z,15.20
2018-08-04T17:47:11.470Z,11.27
2018-08-04T17:49:39.420Z,13.43
2018-08-04T17:52:07.400Z,11.73
2018-08-04T17:54:35.349Z,12.07
2018-08-04T17:57:03.428Z,13.10
2018-08-04T17:59:31.276Z,13.87
2018-08-04T18:01:59.570Z,13.57
2018-08-04T18:04:27.526Z,11.87
2018-08-04T18:06:55.933Z,17.30
2018-08-04T18:09:23.843Z,12.30
2018-08-04T18:11:51.791Z,17.00
2018-08-04T18:14:19.699Z,14.87
2018-08-04T18:16:47.568Z,12.33
2018-08-04T18:19:15.415Z,17.23
2018-08-04T18:21:43.754Z,18.07
2018-08-04T18:24:11.545Z,13.67
2018-08-04T18:26:39.405Z,12.63
2018-08-04T18:29:08.048Z,13.43
2018-08-04T18:31:35.972Z,13.73
2018-08-04T18:34:03.946Z,14.43
2018-08-04T18:36:31.962Z,11.33
2018-08-04T18:39:00.483Z,15.30
2018-08-04T18:41:28.799Z,18.00
2018-08-04T18:43:57.214Z,20.40
2018-08-04T18:46:25.125Z,12.83
2018-08-04T18:48:52.979Z,14.53
2018-08-04T18:51:21.817Z,17.17
2018-08-04T18:53:49.696Z,14.03
2018-08-04T18:56:18.210Z,10.60
2018-08-04T18:58:46.099Z,13.23
2018-08-04T19:01:14.013Z,15.30
2018-08-04T19:03:41.932Z,13.03
2018-08-04T19:06:09.856Z,18.10
2018-08-04T19:08:37.628Z,13.60
2018-08-04T19:11:05.454Z,15.10
2018-08-04T19:13:33.341Z,12.70
2018-08-04T19:16:01.499Z,17.40
2018-08-04T19:18:29.555Z,13.23
2018-08-04T19:20:57.539Z,13.70
2018-08-04T19:23:26.142Z,15.00
2018-08-04T19:25:54.015Z,17.40
2018-08-04T19:28:21.932Z,13.07
2018-08-04T19:30:49.888Z,17.60
2018-08-04T19:33:18.512Z,16.77
2018-08-04T19:35:47.217Z,16.07
2018-08-04T19:38:15.155Z,15.47
2018-08-04T19:40:43.036Z,16.03
2018-08-04T19:43:11.582Z,15.53
2018-08-04T19:45:40.626Z,17.63
2018-08-04T19:48:08.687Z,15.33
2018-08-04T19:50:37.122Z,14.40
2018-08-04T19:53:05.307Z,16.53
2018-08-04T19:55:33.269Z,15.77
2018-08-04T19:58:01.026Z,15.43
2018-08-04T20:00:28.975Z,18.23
2018-08-04T20:02:56.729Z,22.97
2018-08-04T20:05:24.474Z,20.67
2018-08-04T20:07:52.367Z,17.63
2018-08-04T20:10:20.126Z,18.07
2018-08-04T20:12:47.878Z,16.70
2018-08-04T20:15:15.769Z,16.43
2018-08-04T20:17:43.543Z,15.63
2018-08-04T20:20:11.797Z,18.00
2018-08-04T20:22:40.580Z,15.83
2018-08-04T20:25:08.551Z,17.30
2018-08-04T20:27:36.590Z,21.73
2018-08-04T20:30:05.925Z,15.77
2018-08-04T20:32:33.855Z,20.73
2018-08-04T20:35:01.825Z,23.73
2018-08-04T20:37:29.704Z,18.47
2018-08-04T20:39:57.660Z,19.07
2018-08-04T20:42:25.527Z,18.87
2018-08-04T20:44:53.457Z,21.87
2018-08-04T20:47:22.235Z,18.60
2018-08-04T20:49:50.141Z,21.40
2018-08-04T20:52:18.732Z,22.83
2018-08-04T20:54:47.146Z,19.67
2018-08-04T20:57:15.464Z,18.50
2018-08-04T20:59:43.344Z,20.97
2018-08-04T21:02:11.117Z,18.90
2018-08-04T21:04:39.068Z,16.53
2018-08-04T21:07:07.119Z,20.63
2018-08-04T21:09:35.006Z,18.70
2018-08-04T21:12:02.914Z,17.77
2018-08-04T21:14:31.472Z,24.00
2018-08-04T21:16:59.920Z,19.40
2018-08-04T21:19:27.899Z,21.80
2018-08-04T21:21:55.688Z,19.37
2018-08-04T21:24:24.794Z,16.40
2018-08-04T21:26:53.445Z,19.80
2018-08-04T21:29:22.002Z,19.17
2018-08-04T21:31:49.809Z,17.17
2018-08-04T21:34:17.715Z,28.33
2018-08-04T21:36:45.681Z,21.63
2018-08-04T21:39:14.947Z,25.90
2018-08-04T21:41:43.879Z,21.27
2018-08-04T21:44:12.447Z,21.00
2018-08-04T21:46:46.430Z,22.10
2018-08-04T21:49:14.403Z,27.73
2018-08-04T21:51:43.669Z,20.13
2018-08-04T21:54:13.058Z,23.20
2018-08-04T21:56:42.416Z,22.27
2018-08-04T21:59:10.624Z,22.00
2018-08-04T22:01:43.203Z,21.70
2018-08-04T22:04:12.147Z,23.03
2018-08-04T22:06:50.758Z,19.37
2018-08-04T22:09:20.780Z,22.20
2018-08-04T22:11:48.945Z,18.73
2018-08-04T22:14:17.681Z,20.30
2018-08-04T22:16:46.205Z,20.20
2018-08-04T22:19:14.466Z,20.67
2018-08-04T22:21:42.332Z,20.53
2018-08-04T22:24:10.839Z,21.63
2018-08-04T22:26:38.600Z,23.60
2018-08-04T22:29:06.592Z,22.90
2018-08-04T22:31:34.485Z,22.87
2018-08-04T22:34:02.380Z,21.33
2018-08-04T22:36:30.879Z,21.17
2018-08-04T22:38:58.641Z,24.47
2018-08-04T22:41:26.730Z,21.43
2018-08-04T22:43:54.728Z,25.10
2018-08-04T22:46:23.892Z,24.33
2018-08-04T22:48:52.810Z,23.03
2018-08-04T22:51:26.913Z,25.27
2018-08-04T22:53:55.219Z,26.23
2018-08-04T22:56:23.464Z,23.80
2018-08-04T22:58:51.210Z,23.43
2018-08-04T23:01:19.121Z,21.07
2018-08-04T23:06:15.204Z,23.50
2018-08-04T23:08:43.114Z,23.10
2018-08-04T23:11:11.008Z,24.30
2018-08-04T23:13:39.377Z,22.47
2018-08-04T23:16:07.130Z,24.53
2018-08-04T23:18:35.843Z,22.20
2018-08-04T23:21:03.751Z,21.83
2018-08-04T23:23:31.573Z,21.20
2018-08-04T23:25:59.809Z,20.00
2018-08-04T23:28:27.776Z,24.90
2018-08-04T23:30:55.704Z,21.80
2018-08-04T23:33:24.192Z,21.47
2018-08-04T23:35:51.937Z,26.10
2018-08-04T23:38:20.104Z,23.03
2018-08-04T23:40:48.040Z,22.47
2018-08-04T23:43:15.781Z,23.57
2018-08-04T23:45:43.549Z,23.00
2018-08-04T23:48:11.474Z,22.10
2018-08-04T23:50:39.373Z,26.60
2018-08-04T23:53:07.278Z,23.03
2018-08-04T23:55:35.504Z,21.87
2018-08-04T23:58:03.454Z,21.30
